Time;durP1;ratioP1;P1;durP2;ratioP2;P2;SDS_P1;SDS_P2;PMS_P1;PMS_P2;Temp;Humidity;BMP_temperature;BMP_pressure;BME280_temperature;BME280_humidity;BME280_pressure;Samples;Min_cycle;Max_cycle;Signal;HPM_P1;HPM_P2
2021/03/26 00:01:05;;;;;;;9.37;5.53;;;;;;;;;;5076351;28;20240;-83
2021/03/26 00:03:36;;;;;;;9.27;4.80;;;;;;;;;;5089263;28;20607;-80
2021/03/26 00:06:07;;;;;;;7.57;4.67;;;;;;;;;;5046851;28;20237;-80
2021/03/26 00:08:34;;;;;;;8.63;5.17;;;;;;;;;;5086020;28;20233;-79
2021/03/26 00:11:02;;;;;;;7.17;4.73;;;;;;;;;;5072958;28;20232;-81
2021/03/26 00:13:30;;;;;;;9.20;5.67;;;;;;;;;;5075027;28;20232;-79
2021/03/26 00:15:58;;;;;;;6.90;5.00;;;;;;;;;;5067534;28;20237;-79
2021/03/26 00:18:26;;;;;;;9.30;4.93;;;;;;;;;;5094277;28;20228;-80
2021/03/26 00:20:55;;;;;;;7.33;4.77;;;;;;;;;;5103170;28;20601;-79
2021/03/26 00:23:22;;;;;;;9.63;5.87;;;;;;;;;;5072751;28;20237;-79
2021/03/26 00:25:50;;;;;;;7.40;5.00;;;;;;;;;;5092649;28;20603;-79
2021/03/26 00:28:18;;;;;;;8.53;4.80;;;;;;;;;;5093174;28;20221;-79
2021/03/26 00:30:49;;;;;;;9.80;5.37;;;;;;;;;;5083000;28;20237;-83
2021/03/26 00:33:17;;;;;;;7.77;4.90;;;;;;;;;;5085351;28;20604;-80
2021/03/26 00:35:47;;;;;;;7.07;4.90;;;;;;;;;;5094215;28;20223;-80
2021/03/26 00:38:16;;;;;;;8.43;4.83;;;;;;;;;;5071815;28;20220;-79
2021/03/26 00:40:44;;;;;;;8.33;4.67;;;;;;;;;;5086302;28;20232;-79
2021/03/26 00:43:12;;;;;;;10.77;5.77;;;;;;;;;;5089813;28;20230;-82
2021/03/26 00:45:40;;;;;;;7.43;5.40;;;;;;;;;;5090200;28;20225;-79
2021/03/26 00:48:17;;;;;;;9.07;5.77;;;;;;;;;;5073188;28;20219;-83
2021/03/26 00:50:47;;;;;;;9.40;5.90;;;;;;;;;;5087427;28;20232;-80
2021/03/26 00:53:19;;;;;;;7.47;4.70;;;;;;;;;;5089603;28;20233;-79
2021/03/26 00:55:47;;;;;;;10.63;4.93;;;;;;;;;;5089533;28;20716;-82
2021/03/26 00:58:14;;;;;;;8.13;4.83;;;;;;;;;;5083238;28;20227;-80
2021/03/26 01:00:42;;;;;;;7.30;4.83;;;;;;;;;;5074543;28;20232;-79
2021/03/26 01:03:18;;;;;;;8.90;5.43;;;;;;;;;;5108263;27;20213;-84
2021/03/26 01:06:00;;;;;;;9.63;4.90;;;;;;;;;;5117419;27;20226;-83
2021/03/26 01:08:29;;;;;;;7.40;4.90;;;;;;;;;;5118551;27;20236;-81
2021/03/26 01:11:27;;;;;;;11.33;5.50;;;;;;;;;;5103365;28;20226;-79
2021/03/26 01:13:55;;;;;;;8.57;5.50;;;;;;;;;;5099478;28;20224;-82
2021/03/26 01:16:26;;;;;;;10.77;4.77;;;;;;;;;;5096281;28;20222;-79
2021/03/26 01:18:57;;;;;;;8.93;5.17;;;;;;;;;;5069630;28;20624;-81
2021/03/26 01:21:28;;;;;;;11.50;5.70;;;;;;;;;;5093013;28;20226;-82
2021/03/26 01:23:58;;;;;;;6.83;4.93;;;;;;;;;;5090405;28;20242;-80
2021/03/26 01:26:27;;;;;;;8.00;5.37;;;;;;;;;;5082604;28;20238;-79
2021/03/26 01:29:13;;;;;;;13.73;5.70;;;;;;;;;;5101248;28;20230;-81
2021/03/26 01:31:45;;;;;;;10.87;5.53;;;;;;;;;;5045587;28;20220;-86
2021/03/26 01:34:13;;;;;;;8.93;5.47;;;;;;;;;;5068436;28;20217;-83
2021/03/26 01:36:47;;;;;;;8.30;5.53;;;;;;;;;;5087222;28;20222;-80
2021/03/26 01:39:18;;;;;;;9.50;5.67;;;;;;;;;;5091136;28;20237;-79
2021/03/26 01:41:50;;;;;;;9.73;6.10;;;;;;;;;;5085590;28;20298;-79
2021/03/26 01:44:23;;;;;;;9.73;5.90;;;;;;;;;;5061596;28;20226;-80
2021/03/26 01:46:53;;;;;;;8.70;5.83;;;;;;;;;;5071669;28;22380;-80
2021/03/26 01:49:24;;;;;;;9.37;5.60;;;;;;;;;;5088541;28;20743;-83
2021/03/26 01:52:03;;;;;;;9.63;5.40;;;;;;;;;;5083675;28;20604;-79
2021/03/26 01:54:32;;;;;;;12.40;5.70;;;;;;;;;;5075254;28;20239;-80
2021/03/26 01:57:05;;;;;;;7.73;5.10;;;;;;;;;;5069276;28;20315;-80
2021/03/26 01:59:37;;;;;;;9.17;5.77;;;;;;;;;;5088570;28;20221;-79
2021/03/26 02:02:08;;;;;;;8.93;5.50;;;;;;;;;;5085951;28;20224;-80
2021/03/26 02:04:56;;;;;;;9.63;5.23;;;;;;;;;;5062966;28;20226;-79
2021/03/26 02:07:42;;;;;;;8.37;5.23;;;;;;;;;;5079321;28;20606;-84
2021/03/26 02:10:18;;;;;;;8.40;5.20;;;;;;;;;;5050387;28;20712;-79
2021/03/26 02:12:47;;;;;;;11.80;5.20;;;;;;;;;;5087853;28;20230;-80
2021/03/26 02:15:19;;;;;;;7.60;5.90;;;;;;;;;;5084148;28;20241;-81
2021/03/26 02:17:47;;;;;;;9.27;5.27;;;;;;;;;;5073271;28;20316;-79
2021/03/26 02:20:27;;;;;;;9.23;5.53;;;;;;;;;;5086893;28;20335;-79
2021/03/26 02:22:56;;;;;;;6.77;4.77;;;;;;;;;;5086377;28;20218;-79
2021/03/26 02:25:26;;;;;;;10.60;5.27;;;;;;;;;;5076765;28;20229;-79
2021/03/26 02:27:56;;;;;;;8.13;4.93;;;;;;;;;;5082615;28;20218;-79
2021/03/26 02:30:29;;;;;;;11.23;4.80;;;;;;;;;;5070607;28;20228;-79
2021/03/26 02:33:02;;;;;;;10.07;4.93;;;;;;;;;;5083339;28;20605;-79
2021/03/26 02:35:32;;;;;;;7.23;4.90;;;;;;;;;;5108552;28;20264;-78
2021/03/26 02:38:21;;;;;;;7.70;5.23;;;;;;;;;;5088405;28;20228;-80
2021/03/26 02:40:52;;;;;;;7.90;5.37;;;;;;;;;;5092889;28;20225;-79
2021/03/26 02:43:39;;;;;;;9.10;5.53;;;;;;;;;;5073329;27;20226;-79
2021/03/26 02:46:24;;;;;;;10.27;5.80;;;;;;;;;;5090336;28;20233;-80
2021/03/26 02:48:58;;;;;;;11.40;5.43;;;;;;;;;;5091688;28;20231;-80
2021/03/26 02:51:28;;;;;;;10.30;5.17;;;;;;;;;;5091403;28;20233;-79
2021/03/26 02:54:08;;;;;;;9.30;5.40;;;;;;;;;;5067015;28;20234;-78
2021/03/26 02:56:45;;;;;;;12.03;5.80;;;;;;;;;;5074049;28;20240;-79
2021/03/26 02:59:18;;;;;;;8.30;5.37;;;;;;;;;;5088608;28;20241;-79
2021/03/26 03:01:52;;;;;;;10.50;5.07;;;;;;;;;;5093844;28;20454;-79
2021/03/26 03:04:27;;;;;;;13.03;5.73;;;;;;;;;;5069367;28;20216;-83
2021/03/26 03:07:14;;;;;;;7.57;5.17;;;;;;;;;;5080275;28;20741;-79
2021/03/26 03:10:08;;;;;;;9.30;6.80;;;;;;;;;;5072712;28;20225;-79
2021/03/26 03:12:40;;;;;;;9.57;5.80;;;;;;;;;;5085140;28;20227;-80
2021/03/26 03:15:14;;;;;;;7.27;5.70;;;;;;;;;;5073313;28;20230;-83
2021/03/26 03:17:50;;;;;;;12.90;5.53;;;;;;;;;;5054680;28;20606;-79
2021/03/26 03:20:23;;;;;;;8.90;5.20;;;;;;;;;;5052978;28;20237;-80
2021/03/26 03:22:58;;;;;;;8.93;5.97;;;;;;;;;;5070889;28;20623;-81
2021/03/26 03:25:28;;;;;;;8.53;5.43;;;;;;;;;;5089326;28;20233;-81
2021/03/26 03:28:09;;;;;;;9.70;5.53;;;;;;;;;;5081463;28;20229;-79
2021/03/26 03:30:48;;;;;;;9.40;5.60;;;;;;;;;;5097376;28;20222;-81
2021/03/26 03:33:19;;;;;;;8.93;6.00;;;;;;;;;;5075980;28;20218;-84
2021/03/26 03:35:56;;;;;;;8.27;5.93;;;;;;;;;;5069990;28;20242;-80
2021/03/26 03:38:31;;;;;;;11.83;5.27;;;;;;;;;;5085592;28;20225;-79
2021/03/26 03:41:03;;;;;;;8.80;5.20;;;;;;;;;;5057676;28;20221;-82
2021/03/26 03:43:36;;;;;;;10.33;6.23;;;;;;;;;;5056008;28;20251;-79
2021/03/26 03:46:11;;;;;;;11.50;5.70;;;;;;;;;;5055028;28;20258;-79
2021/03/26 03:49:04;;;;;;;8.70;5.63;;;;;;;;;;5067985;28;20228;-82
2021/03/26 03:51:38;;;;;;;11.70;6.43;;;;;;;;;;5052803;28;20712;-79
2021/03/26 03:54:09;;;;;;;9.40;6.73;;;;;;;;;;5068826;28;20221;-79
2021/03/26 03:56:41;;;;;;;10.90;7.10;;;;;;;;;;5089393;28;20226;-79
2021/03/26 03:59:14;;;;;;;12.03;7.47;;;;;;;;;;5072706;28;20225;-78
2021/03/26 04:02:11;;;;;;;12.17;7.27;;;;;;;;;;5058902;28;20224;-82
2021/03/26 04:04:43;;;;;;;10.93;7.90;;;;;;;;;;5122154;27;20225;-79
2021/03/26 04:07:16;;;;;;;10.67;7.13;;;;;;;;;;5075782;28;20224;-82
2021/03/26 04:09:49;;;;;;;11.13;7.13;;;;;;;;;;5112333;27;20225;-79
2021/03/26 04:12:21;;;;;;;11.43;7.53;;;;;;;;;;5093643;27;20225;-79
2021/03/26 04:14:55;;;;;;;8.63;7.00;;;;;;;;;;5081241;28;20233;-81
2021/03/26 04:17:30;;;;;;;10.10;7.30;;;;;;;;;;5078391;28;20224;-78
2021/03/26 04:20:19;;;;;;;12.20;8.63;;;;;;;;;;5074219;28;20229;-79
2021/03/26 04:22:51;;;;;;;16.20;8.07;;;;;;;;;;5073699;28;20237;-79
2021/03/26 04:25:32;;;;;;;9.97;7.33;;;;;;;;;;5049345;28;20219;-79
2021/03/26 04:28:31;;;;;;;10.27;8.03;;;;;;;;;;5085509;28;20241;-79
2021/03/26 04:31:32;;;;;;;9.53;7.90;;;;;;;;;;5068819;28;20223;-79
2021/03/26 04:34:10;;;;;;;9.30;6.90;;;;;;;;;;5073080;28;20236;-79
2021/03/26 04:36:43;;;;;;;10.53;8.07;;;;;;;;;;5053328;28;20226;-79
2021/03/26 04:39:33;;;;;;;10.17;7.77;;;;;;;;;;5097339;28;20241;-78
2021/03/26 04:42:08;;;;;;;9.63;7.37;;;;;;;;;;5069288;28;20225;-79
2021/03/26 04:44:42;;;;;;;14.73;7.87;;;;;;;;;;5101588;28;20221;-80
2021/03/26 04:47:20;;;;;;;10.23;7.30;;;;;;;;;;5098619;28;20616;-79
2021/03/26 04:50:24;;;;;;;10.93;7.10;;;;;;;;;;5053635;28;20222;-78
2021/03/26 04:52:56;;;;;;;11.90;7.70;;;;;;;;;;5070275;28;20715;-79
2021/03/26 04:55:27;;;;;;;14.67;7.60;;;;;;;;;;5073617;28;20230;-80
2021/03/26 04:58:00;;;;;;;11.83;7.33;;;;;;;;;;5092415;28;20247;-79
2021/03/26 05:00:48;;;;;;;11.53;6.80;;;;;;;;;;5094945;28;20605;-78
2021/03/26 05:03:21;;;;;;;8.67;6.77;;;;;;;;;;5091971;28;20229;-79
2021/03/26 05:05:56;;;;;;;9.57;6.47;;;;;;;;;;5082865;27;20229;-79
2021/03/26 05:08:33;;;;;;;9.80;7.07;;;;;;;;;;5082425;28;20229;-79
2021/03/26 05:11:24;;;;;;;11.73;7.00;;;;;;;;;;5058615;28;20733;-79
2021/03/26 05:13:56;;;;;;;11.30;7.27;;;;;;;;;;5051927;28;20225;-78
2021/03/26 05:16:35;;;;;;;10.53;7.03;;;;;;;;;;5056257;28;20222;-79
2021/03/26 05:19:37;;;;;;;11.50;6.97;;;;;;;;;;5015128;28;20754;-78
2021/03/26 05:22:16;;;;;;;10.37;7.20;;;;;;;;;;5085532;28;20225;-79
2021/03/26 05:25:07;;;;;;;9.23;6.80;;;;;;;;;;5075452;28;20232;-78
2021/03/26 05:28:02;;;;;;;12.23;6.80;;;;;;;;;;5062082;28;20229;-81
2021/03/26 05:30:35;;;;;;;9.23;6.87;;;;;;;;;;5074945;28;20241;-79
2021/03/26 05:33:20;;;;;;;10.83;6.43;;;;;;;;;;5056471;28;20222;-80
2021/03/26 05:35:58;;;;;;;11.10;6.60;;;;;;;;;;5051800;28;20698;-80
2021/03/26 05:38:47;;;;;;;10.33;7.40;;;;;;;;;;5088277;28;20241;-79
2021/03/26 05:42:21;;;;;;;12.83;7.37;;;;;;;;;;5032193;28;20223;-79
2021/03/26 05:45:16;;;;;;;10.67;7.40;;;;;;;;;;5084231;28;20229;-78
2021/03/26 05:48:33;;;;;;;10.37;7.73;;;;;;;;;;5081979;28;20605;-78
2021/03/26 05:51:29;;;;;;;11.13;8.60;;;;;;;;;;5073670;28;20569;-79
2021/03/26 05:54:04;;;;;;;13.70;7.77;;;;;;;;;;5092211;28;20237;-79
2021/03/26 05:56:52;;;;;;;16.00;8.20;;;;;;;;;;5073965;28;20249;-80
2021/03/26 05:59:30;;;;;;;12.70;8.20;;;;;;;;;;5075831;28;20229;-79
2021/03/26 06:02:27;;;;;;;11.80;7.53;;;;;;;;;;5083054;28;20225;-82
2021/03/26 06:05:40;;;;;;;11.50;8.83;;;;;;;;;;5094023;28;20225;-79
2021/03/26 06:09:03;;;;;;;11.70;8.40;;;;;;;;;;5004886;28;20224;-81
2021/03/26 06:12:23;;;;;;;11.40;7.83;;;;;;;;;;4996002;28;20269;-79
2021/03/26 06:15:44;;;;;;;10.80;8.30;;;;;;;;;;5019094;28;20236;-78
2021/03/26 06:19:14;;;;;;;8.90;7.77;;;;;;;;;;5087337;28;20237;-78
2021/03/26 06:22:32;;;;;;;13.00;8.47;;;;;;;;;;5072471;28;20225;-80
2021/03/26 06:25:51;;;;;;;10.27;8.53;;;;;;;;;;5090410;28;20710;-80
2021/03/26 06:28:32;;;;;;;12.33;8.63;;;;;;;;;;5086241;28;20221;-80
2021/03/26 06:31:45;;;;;;;13.80;8.67;;;;;;;;;;5086210;28;20229;-79
2021/03/26 06:35:17;;;;;;;10.97;7.83;;;;;;;;;;5058132;28;20237;-79
2021/03/26 06:37:59;;;;;;;9.83;8.00;;;;;;;;;;5068246;28;20225;-80
2021/03/26 06:40:41;;;;;;;11.43;8.13;;;;;;;;;;5096820;28;20710;-79
2021/03/26 06:43:24;;;;;;;13.30;8.70;;;;;;;;;;5072331;28;20233;-79
2021/03/26 06:46:19;;;;;;;10.67;8.47;;;;;;;;;;5058738;28;20729;-79
2021/03/26 06:48:57;;;;;;;11.60;8.73;;;;;;;;;;5067102;28;20237;-79
2021/03/26 06:51:33;;;;;;;12.23;8.03;;;;;;;;;;5088596;28;20224;-79
2021/03/26 06:54:15;;;;;;;11.60;8.47;;;;;;;;;;5077094;28;20225;-81
2021/03/26 06:57:01;;;;;;;11.23;7.77;;;;;;;;;;5081239;28;20241;-81
2021/03/26 06:59:37;;;;;;;13.20;8.67;;;;;;;;;;5048994;28;20222;-82
2021/03/26 07:02:35;;;;;;;14.37;7.90;;;;;;;;;;5084508;28;20224;-80
2021/03/26 07:05:20;;;;;;;10.13;7.63;;;;;;;;;;5074303;28;20246;-80
2021/03/26 07:08:08;;;;;;;12.63;7.47;;;;;;;;;;5077968;28;20229;-79
2021/03/26 07:10:38;;;;;;;12.33;7.03;;;;;;;;;;5069965;28;20226;-79
2021/03/26 07:13:44;;;;;;;11.40;6.50;;;;;;;;;;5069566;28;20717;-80
2021/03/26 07:16:43;;;;;;;77.97;14.90;;;;;;;;;;5065922;28;20244;-84
2021/03/26 07:19:29;;;;;;;10.20;6.50;;;;;;;;;;5061974;28;20225;-78
2021/03/26 07:22:11;;;;;;;13.70;7.00;;;;;;;;;;5083359;28;20238;-78
2021/03/26 07:24:58;;;;;;;11.87;7.17;;;;;;;;;;5097085;28;20261;-79
2021/03/26 07:27:37;;;;;;;11.40;7.17;;;;;;;;;;5074941;28;20229;-80
2021/03/26 07:30:30;;;;;;;12.93;7.47;;;;;;;;;;5088224;28;20598;-78
2021/03/26 07:33:14;;;;;;;11.67;7.13;;;;;;;;;;5074339;28;20319;-79
2021/03/26 07:35:50;;;;;;;12.87;6.67;;;;;;;;;;5065903;28;20222;-80
2021/03/26 07:38:40;;;;;;;16.27;6.93;;;;;;;;;;5061838;28;20219;-81
2021/03/26 07:41:18;;;;;;;10.37;6.57;;;;;;;;;;5074473;28;20236;-79
2021/03/26 07:43:58;;;;;;;10.10;6.23;;;;;;;;;;5079076;28;20216;-83
2021/03/26 07:46:58;;;;;;;11.20;6.33;;;;;;;;;;5076275;28;20227;-79
2021/03/26 07:49:40;;;;;;;10.30;7.00;;;;;;;;;;5069105;28;20229;-82
2021/03/26 07:52:15;;;;;;;14.93;8.00;;;;;;;;;;5067309;28;20224;-81
2021/03/26 07:54:51;;;;;;;12.50;7.90;;;;;;;;;;5063093;28;20728;-77
2021/03/26 07:57:49;;;;;;;14.13;8.33;;;;;;;;;;5074888;28;20224;-80
2021/03/26 08:00:25;;;;;;;13.60;8.13;;;;;;;;;;5063727;28;20314;-83
2021/03/26 08:03:05;;;;;;;12.80;8.27;;;;;;;;;;5084412;28;20231;-77
2021/03/26 08:05:42;;;;;;;14.73;9.40;;;;;;;;;;5101172;28;20702;-81
2021/03/26 08:08:43;;;;;;;12.40;8.17;;;;;;;;;;5086797;28;20222;-78
2021/03/26 08:11:22;;;;;;;17.20;8.43;;;;;;;;;;5075329;28;20228;-79
2021/03/26 08:14:09;;;;;;;11.60;8.33;;;;;;;;;;5089428;27;20588;-78
2021/03/26 08:17:02;;;;;;;11.00;7.63;;;;;;;;;;5080188;28;20233;-78
2021/03/26 08:19:38;;;;;;;9.63;7.70;;;;;;;;;;5067661;28;20233;-79
2021/03/26 08:22:15;;;;;;;13.80;9.10;;;;;;;;;;5104308;28;20212;-80
2021/03/26 08:24:54;;;;;;;10.23;8.30;;;;;;;;;;5085682;28;20217;-83
2021/03/26 08:27:31;;;;;;;12.37;8.23;;;;;;;;;;5083394;28;20225;-79
2021/03/26 08:30:14;;;;;;;13.23;7.90;;;;;;;;;;5084563;28;20224;-82
2021/03/26 08:33:03;;;;;;;14.60;8.87;;;;;;;;;;5100079;28;20228;-80
2021/03/26 08:35:37;;;;;;;14.80;8.87;;;;;;;;;;5079461;28;20229;-81
2021/03/26 08:38:23;;;;;;;16.60;9.10;;;;;;;;;;5079630;28;20247;-79
2021/03/26 08:40:55;;;;;;;12.30;8.57;;;;;;;;;;5065662;28;20682;-80
2021/03/26 08:43:23;;;;;;;14.57;9.30;;;;;;;;;;5047493;28;20309;-82
2021/03/26 08:45:55;;;;;;;10.47;8.67;;;;;;;;;;5063806;28;20229;-79
2021/03/26 08:48:34;;;;;;;12.70;8.87;;;;;;;;;;5060357;28;20222;-79
2021/03/26 08:51:13;;;;;;;13.60;8.60;;;;;;;;;;5051129;28;20221;-81
2021/03/26 08:53:49;;;;;;;18.03;9.27;;;;;;;;;;5061334;28;20587;-79
2021/03/26 08:56:28;;;;;;;16.03;9.33;;;;;;;;;;5042177;28;20222;-79
2021/03/26 08:59:18;;;;;;;14.47;8.63;;;;;;;;;;5076243;28;20695;-79
2021/03/26 09:02:10;;;;;;;12.80;8.27;;;;;;;;;;5034585;28;20590;-82
2021/03/26 09:04:57;;;;;;;11.53;8.53;;;;;;;;;;5060793;28;20241;-79
2021/03/26 09:07:35;;;;;;;13.73;8.83;;;;;;;;;;5082739;28;20232;-79
2021/03/26 09:10:22;;;;;;;13.20;7.77;;;;;;;;;;5069958;28;20230;-83
2021/03/26 09:13:08;;;;;;;11.80;8.33;;;;;;;;;;5051401;28;20226;-79
2021/03/26 09:15:45;;;;;;;12.43;9.17;;;;;;;;;;5061197;28;20303;-79
2021/03/26 09:18:21;;;;;;;15.70;8.70;;;;;;;;;;5056811;28;20221;-81
2021/03/26 09:20:56;;;;;;;21.83;9.00;;;;;;;;;;5069019;28;20226;-80
2021/03/26 09:23:38;;;;;;;13.33;9.27;;;;;;;;;;5084056;28;20237;-78
2021/03/26 09:26:28;;;;;;;15.50;8.67;;;;;;;;;;5064666;28;20234;-77
2021/03/26 09:28:59;;;;;;;12.53;8.23;;;;;;;;;;5085697;28;20229;-81
2021/03/26 09:31:33;;;;;;;10.17;7.47;;;;;;;;;;5051722;28;20227;-81
2021/03/26 09:34:25;;;;;;;10.40;7.80;;;;;;;;;;5055219;28;20604;-79
2021/03/26 09:37:07;;;;;;;12.57;8.10;;;;;;;;;;5093604;28;20264;-83
2021/03/26 09:39:36;;;;;;;13.30;7.33;;;;;;;;;;5092897;28;20224;-82
2021/03/26 09:42:27;;;;;;;10.63;7.77;;;;;;;;;;5107624;28;20210;-86
2021/03/26 09:44:59;;;;;;;10.97;7.90;;;;;;;;;;5089366;28;20283;-81
2021/03/26 09:47:30;;;;;;;13.43;8.00;;;;;;;;;;5076770;28;20248;-79
2021/03/26 09:50:04;;;;;;;12.53;7.93;;;;;;;;;;5080007;28;20218;-81
2021/03/26 09:52:38;;;;;;;8.50;7.17;;;;;;;;;;5069022;28;20368;-79
2021/03/26 09:55:08;;;;;;;11.00;8.27;;;;;;;;;;5068650;28;20223;-81
2021/03/26 09:57:45;;;;;;;12.50;8.20;;;;;;;;;;5059811;28;20230;-80
2021/03/26 10:00:32;;;;;;;10.17;7.03;;;;;;;;;;5065979;28;20700;-79
2021/03/26 10:03:06;;;;;;;9.70;7.23;;;;;;;;;;5087720;28;20228;-82
2021/03/26 10:05:39;;;;;;;8.33;7.00;;;;;;;;;;5072661;28;20236;-83
2021/03/26 10:08:38;;;;;;;13.07;7.30;;;;;;;;;;5081609;28;20218;-86
2021/03/26 10:11:07;;;;;;;11.33;7.03;;;;;;;;;;5088162;28;20230;-81
2021/03/26 10:13:42;;;;;;;10.37;7.60;;;;;;;;;;5066142;28;20253;-80
2021/03/26 10:16:12;;;;;;;9.60;7.60;;;;;;;;;;5057623;28;20226;-80
2021/03/26 10:18:45;;;;;;;8.03;7.23;;;;;;;;;;5043334;28;20222;-83
2021/03/26 10:21:16;;;;;;;11.17;7.33;;;;;;;;;;5047577;28;20223;-80
2021/03/26 10:23:53;;;;;;;10.47;7.83;;;;;;;;;;5059627;28;20230;-84
2021/03/26 10:26:26;;;;;;;9.57;7.03;;;;;;;;;;5087047;28;20229;-85
2021/03/26 10:29:18;;;;;;;12.10;7.10;;;;;;;;;;5050818;28;20334;-80
2021/03/26 10:31:48;;;;;;;13.53;7.20;;;;;;;;;;5080873;28;20225;-85
2021/03/26 10:34:18;;;;;;;11.80;7.23;;;;;;;;;;5066193;28;20222;-85
2021/03/26 10:37:06;;;;;;;11.90;7.23;;;;;;;;;;5076641;28;20729;-83
2021/03/26 10:39:44;;;;;;;8.17;7.37;;;;;;;;;;5062379;28;20229;-80
2021/03/26 10:42:17;;;;;;;10.70;7.33;;;;;;;;;;5067346;28;20256;-81
2021/03/26 10:45:19;;;;;;;11.98;7.05;;;;;;;;;;5078868;28;20605;-81
2021/03/26 10:47:52;;;;;;;12.65;7.03;;;;;;;;;;5030699;28;20233;-81
2021/03/26 10:50:32;;;;;;;11.77;7.43;;;;;;;;;;5067402;28;20218;-78
2021/03/26 10:53:03;;;;;;;7.75;6.95;;;;;;;;;;5055210;28;20253;-81
2021/03/26 10:55:36;;;;;;;9.65;7.65;;;;;;;;;;5078913;28;20273;-81
2021/03/26 10:58:07;;;;;;;9.07;7.60;;;;;;;;;;5079755;28;20999;-77
2021/03/26 11:00:37;;;;;;;8.85;6.93;;;;;;;;;;5086396;28;20228;-78
2021/03/26 11:03:09;;;;;;;8.82;7.93;;;;;;;;;;5101135;27;21203;-78
2021/03/26 11:05:48;;;;;;;10.15;7.78;;;;;;;;;;5101086;28;20228;-77
2021/03/26 11:08:26;;;;;;;9.90;7.88;;;;;;;;;;5070950;28;20627;-79
2021/03/26 11:10:57;;;;;;;9.18;7.57;;;;;;;;;;5078725;28;20712;-79
2021/03/26 11:13:31;;;;;;;12.07;7.93;;;;;;;;;;5088264;27;20222;-78
2021/03/26 11:16:02;;;;;;;7.32;6.57;;;;;;;;;;5085142;28;20225;-78
2021/03/26 11:18:34;;;;;;;8.52;7.63;;;;;;;;;;5065927;28;20226;-79
2021/03/26 11:21:02;;;;;;;7.30;6.60;;;;;;;;;;5104817;27;20590;-78
2021/03/26 11:23:31;;;;;;;8.02;7.13;;;;;;;;;;5052676;28;20233;-80
2021/03/26 11:26:11;;;;;;;10.23;7.57;;;;;;;;;;5091171;27;20682;-78
2021/03/26 11:28:40;;;;;;;7.30;6.57;;;;;;;;;;5045113;28;20224;-78
2021/03/26 11:31:19;;;;;;;8.05;7.25;;;;;;;;;;5056397;28;20210;-80
2021/03/26 11:34:13;;;;;;;10.05;6.90;;;;;;;;;;5097818;28;20225;-78
2021/03/26 11:36:56;;;;;;;8.38;7.50;;;;;;;;;;5046550;28;20226;-77
2021/03/26 11:39:29;;;;;;;7.97;7.18;;;;;;;;;;5041678;28;21511;-78
2021/03/26 11:42:17;;;;;;;7.97;6.47;;;;;;;;;;5060946;28;20210;-78
2021/03/26 11:44:54;;;;;;;6.65;5.60;;;;;;;;;;5079646;28;20238;-79
2021/03/26 11:47:34;;;;;;;8.55;5.90;;;;;;;;;;5061378;28;20230;-78
2021/03/26 11:50:15;;;;;;;8.43;6.10;;;;;;;;;;5041759;28;20234;-78
2021/03/26 11:53:00;;;;;;;8.75;6.70;;;;;;;;;;5055500;28;20248;-78
2021/03/26 11:55:30;;;;;;;7.28;6.45;;;;;;;;;;5077382;28;20232;-79
2021/03/26 11:58:01;;;;;;;6.97;5.82;;;;;;;;;;5054430;28;20225;-79
2021/03/26 12:00:29;;;;;;;6.85;6.15;;;;;;;;;;5053077;28;20249;-79
2021/03/26 12:03:05;;;;;;;9.13;6.40;;;;;;;;;;5035787;28;20711;-80
2021/03/26 12:06:02;;;;;;;5.85;5.25;;;;;;;;;;5074166;28;20222;-77
2021/03/26 12:08:33;;;;;;;5.53;4.80;;;;;;;;;;5059353;28;20255;-78
2021/03/26 12:11:03;;;;;;;6.80;5.28;;;;;;;;;;5046091;28;20222;-79
2021/03/26 12:13:35;;;;;;;5.63;4.80;;;;;;;;;;5070953;28;20227;-79
2021/03/26 12:16:07;;;;;;;8.18;5.40;;;;;;;;;;5062624;28;20232;-79
2021/03/26 12:18:44;;;;;;;7.50;5.03;;;;;;;;;;5084810;28;20232;-78
2021/03/26 12:21:18;;;;;;;5.53;4.97;;;;;;;;;;5097849;28;20229;-79
2021/03/26 12:23:49;;;;;;;5.93;5.00;;;;;;;;;;5073995;28;20247;-79
2021/03/26 12:26:22;;;;;;;5.18;4.68;;;;;;;;;;5083174;28;20601;-79
2021/03/26 12:29:09;;;;;;;6.13;4.50;;;;;;;;;;5072651;28;20244;-81
2021/03/26 12:31:43;;;;;;;5.30;4.80;;;;;;;;;;5073398;28;20218;-81
2021/03/26 12:34:19;;;;;;;5.55;4.82;;;;;;;;;;5084275;28;20221;-80
2021/03/26 12:36:50;;;;;;;6.82;4.93;;;;;;;;;;5040836;28;20221;-79
2021/03/26 12:39:25;;;;;;;6.18;5.10;;;;;;;;;;5050493;28;20226;-80
2021/03/26 12:41:55;;;;;;;7.25;5.55;;;;;;;;;;5050832;28;20233;-78
2021/03/26 12:44:25;;;;;;;9.40;5.82;;;;;;;;;;5056663;28;20222;-79
2021/03/26 12:47:07;;;;;;;6.40;5.35;;;;;;;;;;5043820;28;20238;-79
2021/03/26 12:49:40;;;;;;;6.47;5.43;;;;;;;;;;5032300;28;20869;-80
2021/03/26 12:52:25;;;;;;;7.88;5.47;;;;;;;;;;5078485;28;20222;-79
2021/03/26 12:55:06;;;;;;;6.43;5.55;;;;;;;;;;5073106;28;20599;-79
2021/03/26 12:57:43;;;;;;;8.18;6.15;;;;;;;;;;5016149;28;20234;-78
2021/03/26 13:00:15;;;;;;;6.22;5.63;;;;;;;;;;5067708;28;20218;-79
2021/03/26 13:02:47;;;;;;;7.10;5.10;;;;;;;;;;5061945;28;20222;-79
2021/03/26 13:05:19;;;;;;;6.00;5.40;;;;;;;;;;5054354;28;20591;-80
2021/03/26 13:07:57;;;;;;;5.88;5.28;;;;;;;;;;5063931;28;20312;-80
2021/03/26 13:10:33;;;;;;;6.32;5.65;;;;;;;;;;5063750;28;20230;-81
2021/03/26 13:13:08;;;;;;;6.50;5.80;;;;;;;;;;5072749;28;20226;-80
2021/03/26 13:15:37;;;;;;;6.80;6.00;;;;;;;;;;5068975;28;20581;-80
2021/03/26 13:18:07;;;;;;;6.40;5.28;;;;;;;;;;5045656;28;20309;-80
2021/03/26 13:20:52;;;;;;;6.20;5.00;;;;;;;;;;5061086;28;20229;-80
2021/03/26 13:23:22;;;;;;;5.68;5.05;;;;;;;;;;5028689;28;20215;-80
2021/03/26 13:25:52;;;;;;;5.28;4.57;;;;;;;;;;5042466;28;20230;-81
2021/03/26 13:28:21;;;;;;;5.60;5.07;;;;;;;;;;5042853;28;20221;-79
2021/03/26 13:30:57;;;;;;;5.50;5.00;;;;;;;;;;5078357;28;20253;-78
2021/03/26 13:33:41;;;;;;;5.13;4.63;;;;;;;;;;5068985;28;21137;-79
2021/03/26 13:36:32;;;;;;;7.70;5.10;;;;;;;;;;5106645;28;20237;-80
2021/03/26 13:39:05;;;;;;;5.32;4.80;;;;;;;;;;5055853;28;20221;-79
2021/03/26 13:41:40;;;;;;;5.72;4.25;;;;;;;;;;5076363;28;20217;-78
2021/03/26 13:44:46;;;;;;;4.78;4.05;;;;;;;;;;5063491;28;20229;-79
2021/03/26 13:47:22;;;;;;;7.20;4.90;;;;;;;;;;5082837;28;20225;-81
2021/03/26 13:49:56;;;;;;;7.57;4.82;;;;;;;;;;5084106;28;20218;-79
2021/03/26 13:52:38;;;;;;;6.03;5.05;;;;;;;;;;5064359;28;20687;-78
2021/03/26 13:55:26;;;;;;;9.98;5.75;;;;;;;;;;5063930;28;20228;-78
2021/03/26 13:58:05;;;;;;;7.18;4.78;;;;;;;;;;5087146;28;20229;-78
2021/03/26 14:00:33;;;;;;;5.00;4.50;;;;;;;;;;5057507;28;20229;-81
2021/03/26 14:03:03;;;;;;;5.15;4.53;;;;;;;;;;5083974;28;20225;-81
2021/03/26 14:05:40;;;;;;;6.40;4.53;;;;;;;;;;5064230;28;20703;-79
2021/03/26 14:08:16;;;;;;;4.70;3.95;;;;;;;;;;5090232;28;20225;-80
2021/03/26 14:10:51;;;;;;;4.35;3.88;;;;;;;;;;5093566;28;20237;-79
2021/03/26 14:13:20;;;;;;;4.72;3.90;;;;;;;;;;5082915;28;20218;-79
2021/03/26 14:16:00;;;;;;;5.63;4.40;;;;;;;;;;5063294;28;20225;-80
2021/03/26 14:18:31;;;;;;;5.57;4.45;;;;;;;;;;5088252;28;20702;-81
2021/03/26 14:21:19;;;;;;;6.40;3.97;;;;;;;;;;5085647;28;20233;-79
2021/03/26 14:23:50;;;;;;;4.88;4.03;;;;;;;;;;5088341;28;20229;-79
2021/03/26 14:26:20;;;;;;;4.32;3.42;;;;;;;;;;5087402;28;20226;-79
2021/03/26 14:28:52;;;;;;;5.45;4.07;;;;;;;;;;5076427;28;20217;-79
2021/03/26 14:31:22;;;;;;;5.28;4.10;;;;;;;;;;5075879;28;20226;-79
2021/03/26 14:33:52;;;;;;;7.50;4.00;;;;;;;;;;5076029;28;20214;-82
2021/03/26 14:36:23;;;;;;;4.13;3.50;;;;;;;;;;5078277;28;20229;-79
2021/03/26 14:39:05;;;;;;;6.57;3.70;;;;;;;;;;5077337;28;20626;-80
2021/03/26 14:41:35;;;;;;;6.55;4.20;;;;;;;;;;5078210;28;20606;-81
2021/03/26 14:44:07;;;;;;;6.87;3.83;;;;;;;;;;5055330;28;20230;-79
2021/03/26 14:46:46;;;;;;;3.63;3.33;;;;;;;;;;5083273;28;20222;-79
2021/03/26 14:49:19;;;;;;;5.43;3.85;;;;;;;;;;5071073;28;21726;-80
2021/03/26 14:51:49;;;;;;;5.80;4.00;;;;;;;;;;5074589;28;20754;-79
2021/03/26 14:54:24;;;;;;;4.13;3.73;;;;;;;;;;5078085;28;20240;-79
2021/03/26 14:56:55;;;;;;;3.40;3.10;;;;;;;;;;5078583;28;20684;-79
2021/03/26 14:59:24;;;;;;;3.83;3.43;;;;;;;;;;5076931;28;20730;-80
2021/03/26 15:01:55;;;;;;;4.27;3.77;;;;;;;;;;5062762;28;20722;-79
2021/03/26 15:04:26;;;;;;;4.50;3.78;;;;;;;;;;5060669;28;20599;-79
2021/03/26 15:06:59;;;;;;;5.57;3.85;;;;;;;;;;5077056;28;20253;-79
2021/03/26 15:09:33;;;;;;;5.90;3.78;;;;;;;;;;5082032;28;20226;-79
2021/03/26 15:12:18;;;;;;;5.72;3.80;;;;;;;;;;5078764;28;20229;-81
2021/03/26 15:14:53;;;;;;;3.80;3.40;;;;;;;;;;5079506;28;20226;-81
2021/03/26 15:17:27;;;;;;;8.77;4.25;;;;;;;;;;5077524;28;20242;-79
2021/03/26 15:19:56;;;;;;;8.02;3.65;;;;;;;;;;5088012;28;20723;-79
2021/03/26 15:22:32;;;;;;;7.18;4.47;;;;;;;;;;5065288;28;20624;-78
2021/03/26 15:25:13;;;;;;;4.57;3.88;;;;;;;;;;5058582;28;20222;-79
2021/03/26 15:28:03;;;;;;;5.35;3.40;;;;;;;;;;5068096;28;20234;-82
2021/03/26 15:30:38;;;;;;;4.93;3.83;;;;;;;;;;5071248;28;20711;-82
2021/03/26 15:33:12;;;;;;;3.78;2.88;;;;;;;;;;5075218;28;20225;-83
2021/03/26 15:35:46;;;;;;;5.95;3.60;;;;;;;;;;5071133;28;20221;-80
2021/03/26 15:38:17;;;;;;;5.80;3.70;;;;;;;;;;5077824;28;20222;-82
2021/03/26 15:41:10;;;;;;;6.75;4.03;;;;;;;;;;5081480;28;20232;-83
2021/03/26 15:43:44;;;;;;;7.75;4.20;;;;;;;;;;5082440;28;20218;-80
2021/03/26 15:46:16;;;;;;;4.97;3.93;;;;;;;;;;5077034;28;20767;-82